This is the latest recevied weather packets stored in our database for station/object N1ICS-1. If no packets are shown the sender has not sent any weather packets the latest 10 day(s).
| Time | Temp. | Humidity | Pressure | Rain* | Wind** | Luminosity | Snow |
|---|---|---|---|---|---|---|---|
| 1777575002 | 12.78° C | 50% | 1016.9 hPa | 0 mm | - | 562 W/m² | - |
| 1777574702 | 13.33° C | 51% | 1017 hPa | 0 mm | - | 1020 W/m² | - |
| 1777574402 | 12.22° C | 51% | 1017.3 hPa | 0 mm | - | 301 W/m² | - |
| 1777574102 | 11.67° C | 54% | 1017 hPa | 0 mm | - | 319 W/m² | - |
| 1777573802 | 12.78° C | 53% | 1016.9 hPa | 0 mm | - | 349 W/m² | - |
| 1777573502 | 11.67° C | 56% | 1017.2 hPa | 0 mm | - | 327 W/m² | - |
| 1777573202 | 11.67° C | 56% | 1017.3 hPa | 0 mm | - | 415 W/m² | - |
| 1777572902 | 11.67° C | 55% | 1017.1 hPa | 0 mm | - | 223 W/m² | - |
| 1777572602 | 11.67° C | 59% | 1017.3 hPa | 0 mm | - | 1179 W/m² | - |
| 1777572302 | 12.22° C | 56% | 1017.3 hPa | 0 mm | - | 579 W/m² | - |
| 1777572003 | 12.22° C | 52% | 1017.4 hPa | 0 mm | - | 326 W/m² | - |
| 1777571702 | 11.67° C | 55% | 1017.4 hPa | 0 mm | - | 486 W/m² | - |
| 1777571402 | 12.22° C | 58% | 1017.7 hPa | 0 mm | - | 1208 W/m² | - |
| 1777571102 | 11.11° C | 57% | 1017.5 hPa | 0 mm | - | 342 W/m² | - |
| 1777570802 | 11.67° C | 56% | 1017.7 hPa | 0 mm | - | 333 W/m² | - |
| 1777570502 | 12.22° C | 58% | 1017.3 hPa | 0 mm | - | 1281 W/m² | - |
| 1777570202 | 11.67° C | 60% | 1017.6 hPa | 0 mm | - | 455 W/m² | - |
| 1777569902 | 12.22° C | 63% | 1017.3 hPa | 0 mm | - | 1199 W/m² | - |
| 1777569602 | 11.11° C | 62% | 1017.8 hPa | 0 mm | - | 235 W/m² | - |
| 1777569302 | 11.11° C | 65% | 1017.9 hPa | 0 mm | - | 799 W/m² | - |
| 1777569002 | 11.11° C | 64% | 1017.9 hPa | 0 mm | - | 230 W/m² | - |
| 1777568702 | 11.11° C | 65% | 1017.8 hPa | 0 mm | - | 336 W/m² | - |
| 1777568402 | 12.22° C | 62% | 1017.8 hPa | 0 mm | - | 753 W/m² | - |
| 1777568102 | 10.56° C | 65% | 1017.8 hPa | 0 mm | - | 355 W/m² | - |
| 1777567802 | 11.11° C | 64% | 1018 hPa | 0 mm | - | 278 W/m² | - |
* Rain latest hour (hover to see other rain measurements)
** Current wind speed in m/s (hover to see current wind gust speed)